Terminal Aerodrome Forecast
Issued by NWS

Home | Current Version | Previous Version | Text Only | Print | Product List | Glossary On
Versions: 1 2 3 4 5 6 7 8 9 10 11 12 13 14 15 16 17 18 19
795
FTUS42 KGSP 021128
TAFGMU
TAF
KGMU 021128Z 0212/0312 22004KT 4SM BR BKN002
     FM021300 23008KT P6SM SCT035 BKN080
     FM021800 22010G20KT P6SM -TSRA OVC040CB
     FM030000 22011KT P6SM -TSRA OVC040CB
     FM030600 21011KT P6SM VCSH BKN040=

USA.gov is the U.S. government's official web portal to all federal, state and local government web resources and services.